createdAt,value
2023-04-21T00:00:41.762Z,9.02
2023-04-21T00:02:43.705Z,8.45
2023-04-21T00:04:46.151Z,8.25
2023-04-21T00:06:48.072Z,8.63
2023-04-21T00:08:50.840Z,8.13
2023-04-21T00:10:52.781Z,8.50
2023-04-21T00:12:54.512Z,8.18
2023-04-21T00:14:56.312Z,8.40
2023-04-21T00:17:00.337Z,9.10
2023-04-21T00:19:02.593Z,9.18
2023-04-21T00:21:04.773Z,8.80
2023-04-21T00:23:06.619Z,8.00
2023-04-21T00:25:08.878Z,8.75
2023-04-21T00:27:11.598Z,8.93
2023-04-21T00:29:16.678Z,8.02
2023-04-21T00:31:18.643Z,8.07
2023-04-21T00:33:21.128Z,9.90
2023-04-21T00:35:26.157Z,9.30
2023-04-21T00:37:27.874Z,9.25
2023-04-21T00:39:29.735Z,9.07
2023-04-21T00:41:34.271Z,9.80
2023-04-21T00:43:39.251Z,10.05
2023-04-21T00:45:41.136Z,9.63
2023-04-21T00:47:43.494Z,9.70
2023-04-21T00:49:46.776Z,9.77
2023-04-21T00:51:48.529Z,10.15
2023-04-21T00:53:51.552Z,9.55
2023-04-21T00:55:53.413Z,9.35
2023-04-21T00:57:56.616Z,10.07
2023-04-21T00:59:58.526Z,9.98
2023-04-21T01:02:00.500Z,9.30
2023-04-21T01:04:04.798Z,9.55
2023-04-21T01:06:07.088Z,10.73
2023-04-21T01:08:08.843Z,10.60
2023-04-21T01:10:11.137Z,9.93
2023-04-21T01:12:13.457Z,9.68
2023-04-21T01:14:15.247Z,9.38
2023-04-21T01:16:18.348Z,8.80
2023-04-21T01:18:20.157Z,10.60
2023-04-21T01:20:21.930Z,9.90
2023-04-21T01:22:23.704Z,11.52
2023-04-21T01:24:35.434Z,9.48
2023-04-21T01:26:37.205Z,9.52
2023-04-21T01:28:39.015Z,10.93
2023-04-21T01:30:40.765Z,10.57
2023-04-21T01:32:42.637Z,9.73
2023-04-21T01:34:45.536Z,10.18
2023-04-21T01:36:47.457Z,9.55
2023-04-21T01:38:49.274Z,9.85
2023-04-21T01:40:53.482Z,10.00
2023-04-21T01:42:55.840Z,9.35
2023-04-21T01:44:57.758Z,9.50
2023-04-21T01:46:59.505Z,9.63
2023-04-21T01:49:03.402Z,9.90
2023-04-21T01:51:05.430Z,9.93
2023-04-21T01:53:07.222Z,8.93
2023-04-21T01:55:09.868Z,9.65
2023-04-21T01:57:12.031Z,10.50
2023-04-21T01:59:13.790Z,9.82
2023-04-21T02:01:15.614Z,10.25
2023-04-21T02:03:17.671Z,9.65
2023-04-21T02:05:22.762Z,10.02
2023-04-21T02:07:24.544Z,10.07
2023-04-21T02:09:26.490Z,10.63
2023-04-21T02:11:28.314Z,9.43
2023-04-21T02:13:30.051Z,10.25
2023-04-21T02:15:31.883Z,9.80
2023-04-21T02:17:33.727Z,9.95
2023-04-21T02:19:35.505Z,9.63
2023-04-21T02:21:37.386Z,9.13
2023-04-21T02:23:39.286Z,9.23
2023-04-21T02:25:41.027Z,9.63
2023-04-21T02:27:42.861Z,9.43
2023-04-21T02:29:44.693Z,10.02
2023-04-21T02:32:00.641Z,9.82
2023-04-21T02:34:05.155Z,8.82
2023-04-21T02:36:07.332Z,9.43
2023-04-21T02:38:11.390Z,9.20
2023-04-21T02:40:16.017Z,10.40
2023-04-21T02:42:17.836Z,9.20
2023-04-21T02:44:19.595Z,9.98
2023-04-21T02:46:21.444Z,9.63
2023-04-21T02:48:23.336Z,11.13
2023-04-21T02:50:26.261Z,9.77
2023-04-21T02:52:28.104Z,9.65
2023-04-21T02:54:29.974Z,9.45
2023-04-21T02:56:32.165Z,10.50
2023-04-21T02:58:33.907Z,9.80
2023-04-21T03:00:35.912Z,10.50
2023-04-21T03:02:37.843Z,9.30
2023-04-21T03:04:39.950Z,9.10
2023-04-21T03:06:42.407Z,10.38
2023-04-21T03:08:44.235Z,10.45
2023-04-21T03:10:46.018Z,9.25
2023-04-21T03:12:47.769Z,10.57
2023-04-21T03:14:49.522Z,9.23
2023-04-21T03:16:51.487Z,9.88
2023-04-21T03:18:53.645Z,9.43
2023-04-21T03:21:00.408Z,10.32
2023-04-21T03:23:02.292Z,10.65
2023-04-21T03:25:05.140Z,10.70
2023-04-21T03:27:07.576Z,10.48
2023-04-21T03:29:10.467Z,9.98
2023-04-21T03:31:12.195Z,11.43
2023-04-21T03:33:13.980Z,10.40
2023-04-21T03:35:15.940Z,10.07
2023-04-21T03:37:17.730Z,10.27
2023-04-21T03:39:20.314Z,9.38
2023-04-21T03:41:22.481Z,10.93
2023-04-21T03:43:24.238Z,10.32
2023-04-21T03:45:26.123Z,9.80
2023-04-21T03:47:28.040Z,10.00
2023-04-21T03:49:29.889Z,10.63
2023-04-21T03:51:32.539Z,9.90
2023-04-21T03:53:34.264Z,9.90
2023-04-21T03:55:36.129Z,9.25
2023-04-21T03:57:41.206Z,9.93
2023-04-21T03:59:43.281Z,10.15
2023-04-21T04:01:45.012Z,10.45
2023-04-21T04:03:47.026Z,9.77
2023-04-21T04:05:48.797Z,10.43
2023-04-21T04:07:50.538Z,9.70
2023-04-21T04:09:52.317Z,10.48
2023-04-21T04:11:54.073Z,10.18
2023-04-21T04:13:55.837Z,10.63
2023-04-21T04:15:58.792Z,10.30
2023-04-21T04:18:00.642Z,10.25
2023-04-21T04:20:04.821Z,10.10
2023-04-21T04:22:06.646Z,10.30
2023-04-21T04:24:12.167Z,10.35
2023-04-21T04:26:13.877Z,11.20
2023-04-21T04:28:16.652Z,10.75
2023-04-21T04:30:18.409Z,9.73
2023-04-21T04:32:22.480Z,11.15
2023-04-21T04:34:24.573Z,10.77
2023-04-21T04:36:28.581Z,11.70
2023-04-21T04:38:30.437Z,10.98
2023-04-21T04:40:33.439Z,11.30
2023-04-21T04:42:36.888Z,10.20
2023-04-21T04:44:38.770Z,12.55
2023-04-21T04:46:40.915Z,10.68
2023-04-21T04:48:42.791Z,10.65
2023-04-21T04:50:44.976Z,10.98
2023-04-21T04:52:47.625Z,10.70
2023-04-21T04:54:49.452Z,11.32
2023-04-21T04:56:51.210Z,9.82
2023-04-21T04:58:52.944Z,10.52
2023-04-21T05:00:54.851Z,11.75
2023-04-21T05:02:56.730Z,10.55
2023-04-21T05:04:58.817Z,11.07
2023-04-21T05:07:00.841Z,10.70
2023-04-21T05:09:02.832Z,10.93
2023-04-21T05:11:04.814Z,9.60
2023-04-21T05:13:06.865Z,11.18
2023-04-21T05:15:09.606Z,9.48
2023-04-21T05:17:11.432Z,12.30
2023-04-21T05:19:13.223Z,10.25
2023-04-21T05:21:14.978Z,10.52
2023-04-21T05:23:16.869Z,9.95
2023-04-21T05:25:18.702Z,9.88
2023-04-21T05:27:20.520Z,10.85
2023-04-21T05:29:22.245Z,11.93
2023-04-21T05:31:25.025Z,10.98
2023-04-21T05:33:27.113Z,10.63
2023-04-21T05:35:31.286Z,10.82
2023-04-21T05:37:33.154Z,12.27
2023-04-21T05:39:34.974Z,10.82
2023-04-21T05:41:36.884Z,10.52
2023-04-21T05:43:38.724Z,12.10
2023-04-21T05:45:41.188Z,11.13
2023-04-21T05:47:43.158Z,10.93
2023-04-21T05:49:50.437Z,11.25
2023-04-21T05:51:52.409Z,11.43
2023-04-21T05:53:54.405Z,11.75
2023-04-21T05:55:56.121Z,12.23
2023-04-21T05:57:57.998Z,10.80
2023-04-21T05:59:59.764Z,10.80
2023-04-21T06:02:04.779Z,10.88
2023-04-21T06:04:07.039Z,12.15
2023-04-21T06:06:11.627Z,11.18
2023-04-21T06:08:13.867Z,10.52
2023-04-21T06:10:19.624Z,11.88
2023-04-21T06:12:21.343Z,11.07
2023-04-21T06:14:25.277Z,10.63
2023-04-21T06:16:27.364Z,12.25
2023-04-21T06:18:29.211Z,11.32
2023-04-21T06:20:31.219Z,10.90
2023-04-21T06:22:33.801Z,11.07
2023-04-21T06:24:35.636Z,10.30
2023-04-21T06:26:37.637Z,10.90
2023-04-21T06:28:39.777Z,10.18
2023-04-21T06:30:41.615Z,9.73
2023-04-21T06:32:43.881Z,10.35
2023-04-21T06:34:45.828Z,10.35
2023-04-21T06:36:47.680Z,10.05
2023-04-21T06:38:49.582Z,9.60
2023-04-21T06:40:52.067Z,9.02
2023-04-21T06:42:53.855Z,9.63
2023-04-21T06:44:56.766Z,9.88
2023-04-21T06:46:58.646Z,9.73
2023-04-21T06:49:00.539Z,9.25
2023-04-21T06:51:02.888Z,9.80
2023-04-21T06:53:05.027Z,11.45
2023-04-21T06:55:07.566Z,9.15
2023-04-21T06:57:09.551Z,9.68
2023-04-21T06:59:11.608Z,7.20
2023-04-21T07:01:13.737Z,8.35
2023-04-21T07:03:16.206Z,8.50
2023-04-21T07:05:18.239Z,8.48
2023-04-21T07:07:20.114Z,8.45
2023-04-21T07:09:22.553Z,7.65
2023-04-21T07:11:24.433Z,7.65
2023-04-21T07:13:26.470Z,7.50
2023-04-21T07:15:28.284Z,8.55
2023-04-21T07:17:30.267Z,7.18
2023-04-21T07:19:33.548Z,7.07
2023-04-21T07:21:36.448Z,6.90
2023-04-21T07:23:38.335Z,6.47
2023-04-21T07:25:40.330Z,7.13
2023-04-21T07:27:42.285Z,6.78
2023-04-21T07:29:44.286Z,6.65
2023-04-21T07:31:48.389Z,6.65
2023-04-21T07:33:50.923Z,6.72
2023-04-21T07:35:53.370Z,6.55
2023-04-21T07:37:55.327Z,5.72
2023-04-21T07:39:57.169Z,5.72
2023-04-21T07:41:58.957Z,6.20
2023-04-21T07:44:01.036Z,6.15
2023-04-21T07:46:03.153Z,5.65
2023-04-21T07:48:07.981Z,5.68
2023-04-21T07:50:10.799Z,5.03
2023-04-21T07:52:12.892Z,5.72
2023-04-21T07:54:14.856Z,5.43
2023-04-21T07:56:17.450Z,5.25
2023-04-21T07:58:19.682Z,5.05
2023-04-21T08:00:22.167Z,6.10
2023-04-21T08:02:24.445Z,5.15
2023-04-21T08:04:27.403Z,5.55
2023-04-21T08:06:29.907Z,5.40
2023-04-21T08:08:32.198Z,5.00
2023-04-21T08:10:34.673Z,4.97
2023-04-21T08:12:36.751Z,5.35
2023-04-21T08:14:38.914Z,4.63
2023-04-21T08:16:42.662Z,4.93
2023-04-21T08:18:48.435Z,5.53
2023-04-21T08:20:52.808Z,4.65
2023-04-21T08:22:55.191Z,4.72
2023-04-21T08:24:57.407Z,4.60
2023-04-21T08:26:59.640Z,4.63
2023-04-21T08:29:04.032Z,4.55
2023-04-21T08:31:06.688Z,4.10
2023-04-21T08:33:13.811Z,4.10
2023-04-21T08:35:16.201Z,3.75
2023-04-21T08:37:20.079Z,4.43
2023-04-21T08:39:22.335Z,4.00
2023-04-21T08:41:25.729Z,3.70
2023-04-21T08:43:29.651Z,3.95
2023-04-21T08:45:32.304Z,4.75
2023-04-21T08:47:35.489Z,4.45
2023-04-21T08:49:39.978Z,3.85
2023-04-21T08:51:42.894Z,4.97
2023-04-21T08:53:46.846Z,3.92
2023-04-21T08:56:07.540Z,4.07
2023-04-21T08:58:15.896Z,3.92
2023-04-21T09:00:18.525Z,3.58
2023-04-21T09:02:21.014Z,4.25
2023-04-21T09:04:23.722Z,3.58
2023-04-21T09:06:43.742Z,3.75
2023-04-21T09:08:56.473Z,3.38
2023-04-21T09:11:01.737Z,4.13
2023-04-21T09:13:09.238Z,3.88
2023-04-21T09:15:12.852Z,3.80
2023-04-21T09:17:21.550Z,4.80
2023-04-21T09:19:23.876Z,4.30
2023-04-21T09:21:31.436Z,4.22
2023-04-21T09:23:44.081Z,3.72
2023-04-21T09:25:46.683Z,3.92
2023-04-21T09:27:49.008Z,4.25
2023-04-21T09:29:51.368Z,4.72
2023-04-21T09:31:53.490Z,4.65
2023-04-21T09:34:00.461Z,4.47
2023-04-21T09:36:03.488Z,5.25
2023-04-21T09:38:12.692Z,5.05
2023-04-21T09:40:15.718Z,5.10
2023-04-21T09:42:17.693Z,6.15
2023-04-21T09:44:21.354Z,5.47
2023-04-21T09:46:24.823Z,6.03
2023-04-21T09:48:32.098Z,5.95
2023-04-21T09:51:11.483Z,6.00
2023-04-21T09:52:57.627Z,5.90
2023-04-21T09:55:04.471Z,6.40
2023-04-21T09:57:07.587Z,6.55
2023-04-21T09:59:17.548Z,6.63
2023-04-21T10:01:20.410Z,5.80
2023-04-21T10:03:27.946Z,6.38
2023-04-21T10:05:30.427Z,6.20
2023-04-21T10:07:35.060Z,6.57
2023-04-21T10:09:43.451Z,6.53
2023-04-21T10:11:45.974Z,6.47
2023-04-21T10:13:48.169Z,6.13
2023-04-21T10:16:03.459Z,6.85
2023-04-21T10:18:22.004Z,7.13
2023-04-21T10:20:24.203Z,7.18
2023-04-21T10:22:36.535Z,7.13
2023-04-21T10:24:41.389Z,7.38
2023-04-21T10:26:43.644Z,7.40
2023-04-21T10:28:48.765Z,6.50
2023-04-21T10:30:51.646Z,7.13
2023-04-21T10:33:04.910Z,7.70
2023-04-21T10:35:10.166Z,6.03
2023-04-21T10:37:15.953Z,4.68
2023-04-21T10:39:31.756Z,3.28
2023-04-21T10:41:35.519Z,3.53
2023-04-21T10:43:48.171Z,3.70
2023-04-21T10:45:51.615Z,3.70
2023-04-21T10:47:54.404Z,3.78
2023-04-21T10:49:58.519Z,4.50
2023-04-21T10:52:02.742Z,4.38
2023-04-21T10:54:06.216Z,4.63
2023-04-21T10:56:08.596Z,4.88
2023-04-21T10:58:10.870Z,4.80
2023-04-21T11:00:19.318Z,4.60
2023-04-21T11:02:21.891Z,4.57
2023-04-21T11:04:24.880Z,5.43
2023-04-21T11:06:27.647Z,5.22
2023-04-21T11:08:30.926Z,5.57
2023-04-21T11:10:43.953Z,5.93
2023-04-21T11:12:46.226Z,5.55
2023-04-21T11:14:48.915Z,6.20
2023-04-21T11:16:51.662Z,6.07
2023-04-21T11:18:56.541Z,5.93
2023-04-21T11:21:08.802Z,5.82
2023-04-21T11:23:17.397Z,4.97
2023-04-21T11:25:19.806Z,5.80
2023-04-21T11:27:23.868Z,5.45
2023-04-21T11:29:26.246Z,5.47
2023-04-21T11:31:31.254Z,5.00
2023-04-21T11:33:38.271Z,4.38
2023-04-21T11:35:42.178Z,5.05
2023-04-21T11:37:44.226Z,5.05
2023-04-21T11:39:46.469Z,4.50
2023-04-21T11:41:50.113Z,4.75
2023-04-21T11:43:53.347Z,4.22
2023-04-21T11:45:55.588Z,5.03
2023-04-21T11:48:15.785Z,5.00
2023-04-21T11:50:32.680Z,5.47
2023-04-21T11:52:37.751Z,5.50
2023-04-21T11:54:40.086Z,5.80
2023-04-21T11:56:47.718Z,5.53
2023-04-21T11:58:51.971Z,5.70
2023-04-21T12:00:54.118Z,5.13
2023-04-21T12:02:57.321Z,5.53
2023-04-21T12:05:09.294Z,5.72
2023-04-21T12:07:11.878Z,6.00
2023-04-21T12:09:19.487Z,6.45
2023-04-21T12:11:21.560Z,6.70
2023-04-21T12:13:24.448Z,7.85
2023-04-21T12:15:26.807Z,6.88
2023-04-21T12:17:38.975Z,6.60
2023-04-21T12:19:42.765Z,6.57
2023-04-21T12:21:44.869Z,6.45
2023-04-21T12:23:47.067Z,6.40
2023-04-21T12:25:49.060Z,6.88
2023-04-21T12:27:54.407Z,6.55
2023-04-21T12:29:56.515Z,5.70
2023-04-21T12:31:58.800Z,5.35
2023-04-21T12:34:01.110Z,5.63
2023-04-21T12:36:03.257Z,5.28
2023-04-21T12:38:05.894Z,4.97
2023-04-21T12:40:09.033Z,5.90
2023-04-21T12:42:11.601Z,5.80
2023-04-21T12:44:14.684Z,5.88
2023-04-21T12:46:17.390Z,5.55
2023-04-21T12:48:20.792Z,5.32
2023-04-21T12:50:23.276Z,5.22
2023-04-21T12:52:25.807Z,5.35
2023-04-21T12:54:29.059Z,5.50
2023-04-21T12:56:31.594Z,5.55
2023-04-21T12:58:34.112Z,5.80
2023-04-21T13:00:36.851Z,5.30
2023-04-21T13:02:39.933Z,5.43
2023-04-21T13:04:42.929Z,5.22
2023-04-21T13:06:45.239Z,5.80
2023-04-21T13:08:47.896Z,5.55
2023-04-21T13:10:50.206Z,5.60
2023-04-21T13:12:52.939Z,5.70
2023-04-21T13:14:55.433Z,5.47
2023-04-21T13:16:58.066Z,4.45
2023-04-21T13:19:00.875Z,4.80
2023-04-21T13:21:03.477Z,5.38
2023-04-21T13:23:11.512Z,5.18
2023-04-21T13:25:14.456Z,4.85
2023-04-21T13:27:16.711Z,4.47
2023-04-21T13:29:19.017Z,4.68
2023-04-21T13:31:21.492Z,4.88
2023-04-21T13:33:24.198Z,4.97
2023-04-21T13:35:27.062Z,5.38
2023-04-21T13:37:29.567Z,4.60
2023-04-21T13:39:32.074Z,5.95
2023-04-21T13:41:35.277Z,5.15
2023-04-21T13:43:37.726Z,5.40
2023-04-21T13:45:40.122Z,5.85
2023-04-21T13:47:42.775Z,4.97
2023-04-21T13:49:45.157Z,5.68
2023-04-21T13:51:47.277Z,5.25
2023-04-21T13:53:49.500Z,5.13
2023-04-21T13:55:53.322Z,5.20
2023-04-21T13:57:55.643Z,5.28
2023-04-21T13:59:57.989Z,5.38
2023-04-21T14:02:00.744Z,4.70
2023-04-21T14:04:03.964Z,5.30
2023-04-21T14:06:06.724Z,5.20
2023-04-21T14:08:09.205Z,5.85
2023-04-21T14:10:12.518Z,6.65
2023-04-21T14:12:14.858Z,5.45
2023-04-21T14:14:27.587Z,5.20
2023-04-21T14:16:39.749Z,4.95
2023-04-21T14:18:45.438Z,5.30
2023-04-21T14:20:47.805Z,5.88
2023-04-21T14:22:50.374Z,5.20
2023-04-21T14:24:52.402Z,5.65
2023-04-21T14:26:55.019Z,5.68
2023-04-21T14:28:57.482Z,6.10
2023-04-21T14:30:59.687Z,6.18
2023-04-21T14:33:02.479Z,6.47
2023-04-21T14:35:06.073Z,6.20
2023-04-21T14:37:08.443Z,6.20
2023-04-21T14:39:10.975Z,5.95
2023-04-21T14:41:13.720Z,6.25
2023-04-21T14:43:16.657Z,6.10
2023-04-21T14:45:19.373Z,5.97
2023-04-21T14:47:23.036Z,6.70
2023-04-21T14:49:25.668Z,6.82
2023-04-21T14:51:28.400Z,6.22
2023-04-21T14:53:30.956Z,5.72
2023-04-21T14:55:34.179Z,6.63
2023-04-21T14:57:36.807Z,6.60
2023-04-21T14:59:39.580Z,7.00
2023-04-21T15:01:42.126Z,6.82
2023-04-21T15:03:46.123Z,6.80
2023-04-21T15:05:49.470Z,5.60
2023-04-21T15:07:52.244Z,6.53
2023-04-21T15:09:55.909Z,6.43
2023-04-21T15:11:58.091Z,6.55
2023-04-21T15:14:00.847Z,6.40
2023-04-21T15:16:03.564Z,6.45
2023-04-21T15:18:06.136Z,6.13
2023-04-21T15:20:10.508Z,7.22
2023-04-21T15:22:13.163Z,7.45
2023-04-21T15:24:15.749Z,7.85
2023-04-21T15:26:18.026Z,8.18
2023-04-21T15:28:20.473Z,8.07
2023-04-21T15:30:23.223Z,8.68
2023-04-21T15:32:25.889Z,8.13
2023-04-21T15:34:29.692Z,8.82
2023-04-21T15:36:32.536Z,7.10
2023-04-21T15:38:35.478Z,8.60
2023-04-21T15:40:46.280Z,8.68
2023-04-21T15:42:55.691Z,8.70
2023-04-21T15:44:58.217Z,9.75
2023-04-21T15:47:00.651Z,10.15
2023-04-21T15:49:04.304Z,10.02
2023-04-21T15:51:07.378Z,10.10
2023-04-21T15:53:09.561Z,10.13
2023-04-21T15:55:12.942Z,10.85
2023-04-21T15:57:15.804Z,9.65
2023-04-21T15:59:18.263Z,9.38
2023-04-21T16:01:21.829Z,9.30
2023-04-21T16:03:24.874Z,8.35
2023-04-21T16:05:29.110Z,8.73
2023-04-21T16:07:31.652Z,8.07
2023-04-21T16:09:34.420Z,8.95
2023-04-21T16:11:36.787Z,9.38
2023-04-21T16:13:39.010Z,8.60
2023-04-21T16:15:44.002Z,8.30
2023-04-21T16:17:46.625Z,9.75
2023-04-21T16:19:49.252Z,8.70
2023-04-21T16:21:51.485Z,9.38
2023-04-21T16:23:54.176Z,9.13
2023-04-21T16:25:56.876Z,9.45
2023-04-21T16:27:59.492Z,9.25
2023-04-21T16:30:01.913Z,9.23
2023-04-21T16:32:04.633Z,9.05
2023-04-21T16:34:07.322Z,9.50
2023-04-21T16:36:09.757Z,9.15
2023-04-21T16:38:13.969Z,9.50
2023-04-21T16:40:16.449Z,8.95
2023-04-21T16:42:18.549Z,9.95
2023-04-21T16:44:21.170Z,8.43
2023-04-21T16:46:25.551Z,7.93
2023-04-21T16:48:28.590Z,8.55
2023-04-21T16:50:31.259Z,9.13
2023-04-21T16:52:33.717Z,9.32
2023-04-21T16:54:39.027Z,10.30
2023-04-21T16:56:41.576Z,9.57
2023-04-21T16:58:43.966Z,9.73
2023-04-21T17:00:46.615Z,8.70
2023-04-21T17:02:49.158Z,9.20
2023-04-21T17:04:52.089Z,8.27
2023-04-21T17:06:54.214Z,8.30
2023-04-21T17:09:00.039Z,8.18
2023-04-21T17:11:02.599Z,8.70
2023-04-21T17:13:06.347Z,10.27
2023-04-21T17:15:09.554Z,9.68
2023-04-21T17:17:11.796Z,9.68
2023-04-21T17:19:14.206Z,10.48
2023-04-21T17:21:19.730Z,10.13
2023-04-21T17:23:22.197Z,10.32
2023-04-21T17:25:24.355Z,11.57
2023-04-21T17:27:26.552Z,12.07
2023-04-21T17:29:28.922Z,12.38
2023-04-21T17:31:33.389Z,12.00
2023-04-21T17:33:38.339Z,12.68
2023-04-21T17:35:46.019Z,12.88
2023-04-21T17:37:54.759Z,12.02
2023-04-21T17:39:59.209Z,12.00
2023-04-21T17:42:03.297Z,11.40
2023-04-21T17:44:05.570Z,12.60
2023-04-21T17:46:10.367Z,12.68
2023-04-21T17:48:12.773Z,12.68
2023-04-21T17:50:15.117Z,12.45
2023-04-21T17:52:17.481Z,12.30
2023-04-21T17:54:19.672Z,10.38
2023-04-21T17:56:22.564Z,10.68
2023-04-21T17:58:26.449Z,11.45
2023-04-21T18:00:34.612Z,12.60
2023-04-21T18:02:36.891Z,12.95
2023-04-21T18:04:39.702Z,13.60
2023-04-21T18:06:42.440Z,14.07
2023-04-21T18:08:47.269Z,14.27
2023-04-21T18:10:49.166Z,13.82
2023-04-21T18:12:51.468Z,13.57
2023-04-21T18:14:53.655Z,14.40
2023-04-21T18:16:55.766Z,14.60
2023-04-21T18:19:01.979Z,15.02
2023-04-21T18:21:04.607Z,14.52
2023-04-21T18:23:06.686Z,16.58
2023-04-21T18:25:09.183Z,15.02
2023-04-21T18:27:11.560Z,15.52
2023-04-21T18:29:17.987Z,16.13
2023-04-21T18:31:21.903Z,15.77
2023-04-21T18:33:27.517Z,15.90
2023-04-21T18:35:29.803Z,16.05
2023-04-21T18:37:32.038Z,14.73
2023-04-21T18:39:34.169Z,15.82
2023-04-21T18:41:37.305Z,15.95
2023-04-21T18:43:39.511Z,16.38
2023-04-21T18:45:41.964Z,16.23
2023-04-21T18:47:45.958Z,16.45
2023-04-21T18:49:48.227Z,16.38
2023-04-21T18:51:50.363Z,15.95
2023-04-21T18:53:52.500Z,18.15
2023-04-21T18:55:54.554Z,17.38
2023-04-21T18:57:59.370Z,16.70
2023-04-21T19:00:01.722Z,16.40
2023-04-21T19:02:06.480Z,16.33
2023-04-21T19:04:10.357Z,17.40
2023-04-21T19:06:12.593Z,16.73
2023-04-21T19:08:14.911Z,16.42
2023-04-21T19:10:17.090Z,16.60
2023-04-21T19:12:20.277Z,18.25
2023-04-21T19:14:22.669Z,16.67
2023-04-21T19:16:24.964Z,16.73
2023-04-21T19:18:26.951Z,15.73
2023-04-21T19:20:29.959Z,18.10
2023-04-21T19:22:33.671Z,16.58
2023-04-21T19:24:39.024Z,16.77
2023-04-21T19:26:41.339Z,18.17
2023-04-21T19:28:43.638Z,17.77
2023-04-21T19:30:45.494Z,18.13
2023-04-21T19:32:47.619Z,18.08
2023-04-21T19:34:49.729Z,18.55
2023-04-21T19:36:53.031Z,17.73
2023-04-21T19:38:55.111Z,17.95
2023-04-21T19:40:57.565Z,18.70
2023-04-21T19:42:59.359Z,19.15
2023-04-21T19:45:01.225Z,19.15
2023-04-21T19:47:03.230Z,19.20
2023-04-21T19:49:05.296Z,19.80
2023-04-21T19:51:07.786Z,19.20
2023-04-21T19:53:14.623Z,18.25
2023-04-21T19:55:16.665Z,16.90
2023-04-21T19:57:18.722Z,17.08
2023-04-21T19:59:20.764Z,17.85
2023-04-21T20:01:22.912Z,17.63
2023-04-21T20:03:25.022Z,18.45
2023-04-21T20:05:27.122Z,18.73
2023-04-21T20:07:29.052Z,18.80
2023-04-21T20:09:31.227Z,18.00
2023-04-21T20:11:34.151Z,18.15
2023-04-21T20:13:36.212Z,18.80
2023-04-21T20:15:39.537Z,18.27
2023-04-21T20:17:47.356Z,18.27
2023-04-21T20:19:49.337Z,18.10
2023-04-21T20:21:51.197Z,18.60
2023-04-21T20:23:56.456Z,17.83
2023-04-21T20:25:58.511Z,18.67
2023-04-21T20:28:00.758Z,17.65
2023-04-21T20:30:03.085Z,18.15
2023-04-21T20:32:05.187Z,20.05
2023-04-21T20:34:08.508Z,18.88
2023-04-21T20:36:12.176Z,20.05
2023-04-21T20:38:14.671Z,20.35
2023-04-21T20:40:18.894Z,20.42
2023-04-21T20:42:21.961Z,20.88
2023-04-21T20:44:24.594Z,19.48
2023-04-21T20:46:27.605Z,19.42
2023-04-21T20:48:29.571Z,20.23
2023-04-21T20:50:31.421Z,19.67
2023-04-21T20:52:33.217Z,19.55
2023-04-21T20:54:35.553Z,20.85
2023-04-21T20:56:39.931Z,20.38
2023-04-21T20:58:41.750Z,19.25
2023-04-21T21:00:43.696Z,20.65
2023-04-21T21:02:45.872Z,21.58
2023-04-21T21:04:47.930Z,20.27
2023-04-21T21:06:49.857Z,20.08
2023-04-21T21:08:54.153Z,20.23
2023-04-21T21:10:56.194Z,21.80
2023-04-21T21:13:00.231Z,21.02
2023-04-21T21:15:02.110Z,22.58
2023-04-21T21:17:03.952Z,22.08
2023-04-21T21:19:06.073Z,21.95
2023-04-21T21:21:08.273Z,22.15
2023-04-21T21:23:10.091Z,22.92
2023-04-21T21:25:12.113Z,21.73
2023-04-21T21:27:13.924Z,22.83
2023-04-21T21:29:15.757Z,23.80
2023-04-21T21:31:17.648Z,22.90
2023-04-21T21:33:20.971Z,23.30
2023-04-21T21:35:23.176Z,23.42
2023-04-21T21:37:25.126Z,23.70
2023-04-21T21:39:27.281Z,24.10
2023-04-21T21:41:32.262Z,23.67
2023-04-21T21:43:34.281Z,23.48
2023-04-21T21:45:36.211Z,23.75
2023-04-21T21:47:41.720Z,23.45
2023-04-21T21:49:44.943Z,23.15
2023-04-21T21:51:46.714Z,23.45
2023-04-21T21:53:48.569Z,22.27
2023-04-21T21:55:50.451Z,22.00
2023-04-21T21:57:52.722Z,21.80
2023-04-21T21:59:54.614Z,21.63
2023-04-21T22:01:56.484Z,23.02
2023-04-21T22:03:58.458Z,21.80
2023-04-21T22:06:00.979Z,22.13
2023-04-21T22:08:04.201Z,21.98
2023-04-21T22:10:07.023Z,21.95
2023-04-21T22:12:09.458Z,22.58
2023-04-21T22:14:21.801Z,21.38
2023-04-21T22:16:25.651Z,22.38
2023-04-21T22:18:27.702Z,22.55
2023-04-21T22:20:30.279Z,21.75
2023-04-21T22:22:32.213Z,22.60
2023-04-21T22:24:34.366Z,22.70
2023-04-21T22:26:36.540Z,22.52
2023-04-21T22:28:38.875Z,21.73
2023-04-21T22:30:41.072Z,22.88
2023-04-21T22:32:43.569Z,20.98
2023-04-21T22:34:45.996Z,20.92
2023-04-21T22:36:47.782Z,21.90
2023-04-21T22:38:49.654Z,22.63
2023-04-21T22:40:51.550Z,21.40
2023-04-21T22:42:54.206Z,21.92
2023-04-21T22:44:56.442Z,20.88
2023-04-21T22:47:00.870Z,21.70
2023-04-21T22:49:03.954Z,22.05
2023-04-21T22:51:07.643Z,21.23
2023-04-21T22:53:09.415Z,20.58
2023-04-21T22:55:11.220Z,22.05
2023-04-21T22:57:14.523Z,23.27
2023-04-21T22:59:16.963Z,24.38
2023-04-21T23:01:19.133Z,23.88
2023-04-21T23:03:22.372Z,23.38
2023-04-21T23:05:24.352Z,24.38
2023-04-21T23:07:26.155Z,25.15
2023-04-21T23:09:28.024Z,23.40
2023-04-21T23:11:29.947Z,23.85
2023-04-21T23:13:33.067Z,24.92
2023-04-21T23:15:34.891Z,24.88
2023-04-21T23:17:36.742Z,25.38
2023-04-21T23:19:38.881Z,22.83
2023-04-21T23:21:41.092Z,25.77
2023-04-21T23:23:43.076Z,26.60
2023-04-21T23:25:45.474Z,25.95
2023-04-21T23:27:47.455Z,26.00
2023-04-21T23:29:49.286Z,25.10
2023-04-21T23:31:51.248Z,26.17
2023-04-21T23:33:53.390Z,26.20
2023-04-21T23:35:56.434Z,26.13
2023-04-21T23:37:58.310Z,26.13
2023-04-21T23:40:00.071Z,25.38
2023-04-21T23:42:02.780Z,25.92
2023-04-21T23:44:04.558Z,27.17
2023-04-21T23:46:06.411Z,27.83
2023-04-21T23:48:11.906Z,27.30
2023-04-21T23:50:13.986Z,26.33
2023-04-21T23:52:15.826Z,26.73
2023-04-21T23:54:17.675Z,25.77
2023-04-21T23:56:19.438Z,27.17
2023-04-21T23:58:21.188Z,25.85
